Terminal Aerodrome Forecast
Issued by NWS

Current Version | Previous Version | Text Only | Print | Product List | Glossary On
Versions: 1 2 3 4 5 6 7 8 9 10 11 12 13 14 15 16 17 18 19 20
000
FTUS43 KAPX 282320
TAFTVC
TAF
KTVC 282320Z 2900/2924 03005KT P6SM SCT100
     FM290600 13004KT P6SM SCT250 WS020/18028KT
     FM291200 16007KT P6SM SCT120 BKN200
     FM291500 20008KT P6SM VCSH SCT040 BKN080=

USA.gov is the U.S. government's official web portal to all federal, state and local government web resources and services.